sensor_id;sensor_type;location;lat;lon;timestamp;P1;durP1;ratioP1;P2;durP2;ratioP2
58954;SDS011;45815;52.334;5.024;2023-07-16T00:00:49;11.52;;;2.78;;
58954;SDS011;45815;52.334;5.024;2023-07-16T00:03:15;13.70;;;3.05;;
58954;SDS011;45815;52.334;5.024;2023-07-16T00:05:41;9.60;;;2.95;;
58954;SDS011;45815;52.334;5.024;2023-07-16T00:08:07;9.43;;;2.80;;
58954;SDS011;45815;52.334;5.024;2023-07-16T00:10:34;11.57;;;2.75;;
58954;SDS011;45815;52.334;5.024;2023-07-16T00:13:01;12.02;;;2.90;;
58954;SDS011;45815;52.334;5.024;2023-07-16T00:15:26;11.13;;;2.70;;
58954;SDS011;45815;52.334;5.024;2023-07-16T00:17:52;12.00;;;2.70;;
58954;SDS011;45815;52.334;5.024;2023-07-16T00:20:18;14.77;;;2.85;;
58954;SDS011;45815;52.334;5.024;2023-07-16T00:22:43;10.18;;;3.25;;
58954;SDS011;45815;52.334;5.024;2023-07-16T00:25:08;15.95;;;2.85;;
58954;SDS011;45815;52.334;5.024;2023-07-16T00:27:34;11.80;;;2.45;;
58954;SDS011;45815;52.334;5.024;2023-07-16T00:29:59;10.00;;;2.80;;
58954;SDS011;45815;52.334;5.024;2023-07-16T00:32:25;11.18;;;2.72;;
58954;SDS011;45815;52.334;5.024;2023-07-16T00:34:50;8.50;;;2.67;;
58954;SDS011;45815;52.334;5.024;2023-07-16T00:37:16;9.10;;;2.88;;
58954;SDS011;45815;52.334;5.024;2023-07-16T00:39:41;10.57;;;2.80;;
58954;SDS011;45815;52.334;5.024;2023-07-16T00:42:07;11.20;;;2.90;;
58954;SDS011;45815;52.334;5.024;2023-07-16T00:44:32;11.05;;;2.97;;
58954;SDS011;45815;52.334;5.024;2023-07-16T00:46:58;8.43;;;2.72;;
58954;SDS011;45815;52.334;5.024;2023-07-16T00:49:24;10.85;;;3.10;;
58954;SDS011;45815;52.334;5.024;2023-07-16T00:51:51;11.07;;;3.08;;
58954;SDS011;45815;52.334;5.024;2023-07-16T00:54:17;14.48;;;3.30;;
58954;SDS011;45815;52.334;5.024;2023-07-16T00:56:44;11.90;;;3.50;;
58954;SDS011;45815;52.334;5.024;2023-07-16T00:59:10;13.88;;;3.13;;
58954;SDS011;45815;52.334;5.024;2023-07-16T01:01:35;10.88;;;3.65;;
58954;SDS011;45815;52.334;5.024;2023-07-16T01:04:02;10.60;;;3.15;;
58954;SDS011;45815;52.334;5.024;2023-07-16T01:09:18;10.98;;;3.50;;
58954;SDS011;45815;52.334;5.024;2023-07-16T01:11:45;12.20;;;3.88;;
58954;SDS011;45815;52.334;5.024;2023-07-16T01:14:12;13.63;;;3.72;;
58954;SDS011;45815;52.334;5.024;2023-07-16T01:16:38;9.55;;;3.45;;
58954;SDS011;45815;52.334;5.024;2023-07-16T01:19:06;10.90;;;3.33;;
58954;SDS011;45815;52.334;5.024;2023-07-16T01:21:37;10.13;;;3.05;;
58954;SDS011;45815;52.334;5.024;2023-07-16T01:30:03;11.13;;;3.75;;
58954;SDS011;45815;52.334;5.024;2023-07-16T01:32:30;9.95;;;3.22;;
58954;SDS011;45815;52.334;5.024;2023-07-16T01:35:00;14.05;;;4.30;;
58954;SDS011;45815;52.334;5.024;2023-07-16T01:37:27;11.98;;;3.47;;
58954;SDS011;45815;52.334;5.024;2023-07-16T01:39:52;10.30;;;3.78;;
58954;SDS011;45815;52.334;5.024;2023-07-16T01:42:18;11.55;;;3.80;;
58954;SDS011;45815;52.334;5.024;2023-07-16T01:44:44;12.68;;;3.92;;
58954;SDS011;45815;52.334;5.024;2023-07-16T01:47:10;13.10;;;4.00;;
58954;SDS011;45815;52.334;5.024;2023-07-16T01:49:46;12.70;;;4.25;;
58954;SDS011;45815;52.334;5.024;2023-07-16T01:52:13;17.98;;;5.07;;
58954;SDS011;45815;52.334;5.024;2023-07-16T01:54:38;11.98;;;3.55;;
58954;SDS011;45815;52.334;5.024;2023-07-16T01:57:04;11.68;;;4.10;;
58954;SDS011;45815;52.334;5.024;2023-07-16T01:59:29;11.27;;;4.18;;
58954;SDS011;45815;52.334;5.024;2023-07-16T02:01:55;11.88;;;4.20;;
58954;SDS011;45815;52.334;5.024;2023-07-16T02:04:21;12.90;;;4.65;;
58954;SDS011;45815;52.334;5.024;2023-07-16T02:06:47;15.30;;;4.47;;
58954;SDS011;45815;52.334;5.024;2023-07-16T02:09:17;11.27;;;4.15;;
58954;SDS011;45815;52.334;5.024;2023-07-16T02:11:42;13.82;;;4.85;;
58954;SDS011;45815;52.334;5.024;2023-07-16T02:14:08;13.00;;;4.35;;
58954;SDS011;45815;52.334;5.024;2023-07-16T02:16:35;15.00;;;5.13;;
58954;SDS011;45815;52.334;5.024;2023-07-16T02:19:00;10.90;;;4.20;;
58954;SDS011;45815;52.334;5.024;2023-07-16T02:21:26;15.10;;;4.53;;
58954;SDS011;45815;52.334;5.024;2023-07-16T02:23:51;20.83;;;5.75;;
58954;SDS011;45815;52.334;5.024;2023-07-16T02:26:17;16.58;;;5.20;;
58954;SDS011;45815;52.334;5.024;2023-07-16T02:28:42;16.73;;;5.60;;
58954;SDS011;45815;52.334;5.024;2023-07-16T02:31:07;13.18;;;5.20;;
58954;SDS011;45815;52.334;5.024;2023-07-16T02:33:33;15.05;;;5.80;;
58954;SDS011;45815;52.334;5.024;2023-07-16T02:35:58;15.45;;;5.53;;
58954;SDS011;45815;52.334;5.024;2023-07-16T02:38:24;13.50;;;5.57;;
58954;SDS011;45815;52.334;5.024;2023-07-16T02:40:49;13.60;;;5.15;;
58954;SDS011;45815;52.334;5.024;2023-07-16T02:43:15;11.77;;;5.22;;
58954;SDS011;45815;52.334;5.024;2023-07-16T02:45:44;17.15;;;5.55;;
58954;SDS011;45815;52.334;5.024;2023-07-16T02:48:09;13.43;;;5.57;;
58954;SDS011;45815;52.334;5.024;2023-07-16T02:50:35;11.27;;;5.10;;
58954;SDS011;45815;52.334;5.024;2023-07-16T02:53:05;14.93;;;6.03;;
58954;SDS011;45815;52.334;5.024;2023-07-16T02:55:32;15.00;;;5.57;;
58954;SDS011;45815;52.334;5.024;2023-07-16T02:58:00;14.38;;;5.47;;
58954;SDS011;45815;52.334;5.024;2023-07-16T03:00:32;13.50;;;5.57;;
58954;SDS011;45815;52.334;5.024;2023-07-16T03:02:58;18.05;;;6.35;;
58954;SDS011;45815;52.334;5.024;2023-07-16T03:05:26;16.33;;;5.50;;
58954;SDS011;45815;52.334;5.024;2023-07-16T03:07:52;15.27;;;6.03;;
58954;SDS011;45815;52.334;5.024;2023-07-16T03:10:17;15.80;;;5.88;;
58954;SDS011;45815;52.334;5.024;2023-07-16T03:12:43;12.30;;;5.45;;
58954;SDS011;45815;52.334;5.024;2023-07-16T03:15:09;17.63;;;6.20;;
58954;SDS011;45815;52.334;5.024;2023-07-16T03:17:36;13.55;;;5.57;;
58954;SDS011;45815;52.334;5.024;2023-07-16T03:20:02;14.13;;;5.50;;
58954;SDS011;45815;52.334;5.024;2023-07-16T03:22:29;18.08;;;6.15;;
58954;SDS011;45815;52.334;5.024;2023-07-16T03:24:54;15.13;;;6.00;;
58954;SDS011;45815;52.334;5.024;2023-07-16T03:27:20;14.93;;;5.85;;
58954;SDS011;45815;52.334;5.024;2023-07-16T03:29:51;16.52;;;5.85;;
58954;SDS011;45815;52.334;5.024;2023-07-16T03:32:17;16.02;;;5.72;;
58954;SDS011;45815;52.334;5.024;2023-07-16T03:34:44;19.65;;;6.50;;
58954;SDS011;45815;52.334;5.024;2023-07-16T03:37:09;18.55;;;6.20;;
58954;SDS011;45815;52.334;5.024;2023-07-16T03:39:35;14.80;;;5.57;;
58954;SDS011;45815;52.334;5.024;2023-07-16T03:42:01;15.23;;;5.68;;
58954;SDS011;45815;52.334;5.024;2023-07-16T03:44:26;13.43;;;5.78;;
58954;SDS011;45815;52.334;5.024;2023-07-16T03:46:52;16.02;;;6.47;;
58954;SDS011;45815;52.334;5.024;2023-07-16T03:49:17;13.77;;;5.07;;
58954;SDS011;45815;52.334;5.024;2023-07-16T03:51:44;14.88;;;5.53;;
58954;SDS011;45815;52.334;5.024;2023-07-16T03:54:09;11.95;;;5.10;;
58954;SDS011;45815;52.334;5.024;2023-07-16T03:56:34;12.25;;;4.53;;
58954;SDS011;45815;52.334;5.024;2023-07-16T03:59:01;13.43;;;4.90;;
58954;SDS011;45815;52.334;5.024;2023-07-16T04:01:27;11.63;;;4.20;;
58954;SDS011;45815;52.334;5.024;2023-07-16T04:03:52;15.15;;;4.75;;
58954;SDS011;45815;52.334;5.024;2023-07-16T04:06:20;11.35;;;4.55;;
58954;SDS011;45815;52.334;5.024;2023-07-16T04:08:45;14.07;;;4.72;;
58954;SDS011;45815;52.334;5.024;2023-07-16T04:11:11;13.15;;;4.78;;
58954;SDS011;45815;52.334;5.024;2023-07-16T04:13:36;12.45;;;4.90;;
58954;SDS011;45815;52.334;5.024;2023-07-16T04:16:02;11.68;;;4.50;;
58954;SDS011;45815;52.334;5.024;2023-07-16T04:18:27;12.50;;;4.38;;
58954;SDS011;45815;52.334;5.024;2023-07-16T04:20:53;15.70;;;4.45;;
58954;SDS011;45815;52.334;5.024;2023-07-16T04:23:18;11.60;;;4.53;;
58954;SDS011;45815;52.334;5.024;2023-07-16T04:25:44;15.55;;;4.85;;
58954;SDS011;45815;52.334;5.024;2023-07-16T04:28:10;12.50;;;4.28;;
58954;SDS011;45815;52.334;5.024;2023-07-16T04:30:36;13.95;;;4.95;;
58954;SDS011;45815;52.334;5.024;2023-07-16T04:33:02;13.35;;;4.72;;
58954;SDS011;45815;52.334;5.024;2023-07-16T04:35:32;15.52;;;5.55;;
58954;SDS011;45815;52.334;5.024;2023-07-16T04:37:58;17.65;;;5.13;;
58954;SDS011;45815;52.334;5.024;2023-07-16T04:40:23;11.75;;;5.10;;
58954;SDS011;45815;52.334;5.024;2023-07-16T04:42:49;14.07;;;5.57;;
58954;SDS011;45815;52.334;5.024;2023-07-16T04:45:14;14.55;;;5.00;;
58954;SDS011;45815;52.334;5.024;2023-07-16T04:47:40;14.75;;;5.13;;
58954;SDS011;45815;52.334;5.024;2023-07-16T04:50:05;19.73;;;5.32;;
58954;SDS011;45815;52.334;5.024;2023-07-16T04:52:31;12.65;;;5.63;;
58954;SDS011;45815;52.334;5.024;2023-07-16T04:54:57;12.70;;;4.90;;
58954;SDS011;45815;52.334;5.024;2023-07-16T04:57:22;13.85;;;5.35;;
58954;SDS011;45815;52.334;5.024;2023-07-16T04:59:48;15.57;;;5.40;;
58954;SDS011;45815;52.334;5.024;2023-07-16T05:02:13;12.82;;;5.53;;
58954;SDS011;45815;52.334;5.024;2023-07-16T05:04:40;18.60;;;6.22;;
58954;SDS011;45815;52.334;5.024;2023-07-16T05:07:06;13.50;;;5.70;;
58954;SDS011;45815;52.334;5.024;2023-07-16T05:09:32;11.98;;;5.05;;
58954;SDS011;45815;52.334;5.024;2023-07-16T05:11:58;13.85;;;5.20;;
58954;SDS011;45815;52.334;5.024;2023-07-16T05:14:26;12.90;;;5.22;;
58954;SDS011;45815;52.334;5.024;2023-07-16T05:16:52;11.55;;;5.40;;
58954;SDS011;45815;52.334;5.024;2023-07-16T05:19:18;11.32;;;4.93;;
58954;SDS011;45815;52.334;5.024;2023-07-16T05:21:43;17.30;;;5.88;;
58954;SDS011;45815;52.334;5.024;2023-07-16T05:24:09;16.48;;;6.80;;
58954;SDS011;45815;52.334;5.024;2023-07-16T05:26:34;13.05;;;5.25;;
58954;SDS011;45815;52.334;5.024;2023-07-16T05:29:00;13.27;;;6.00;;
58954;SDS011;45815;52.334;5.024;2023-07-16T05:31:25;16.83;;;5.88;;
58954;SDS011;45815;52.334;5.024;2023-07-16T05:33:50;13.35;;;6.55;;
58954;SDS011;45815;52.334;5.024;2023-07-16T05:36:16;12.48;;;6.03;;
58954;SDS011;45815;52.334;5.024;2023-07-16T05:38:41;14.23;;;6.07;;
58954;SDS011;45815;52.334;5.024;2023-07-16T05:41:07;12.25;;;6.03;;
58954;SDS011;45815;52.334;5.024;2023-07-16T05:43:32;15.50;;;6.35;;
58954;SDS011;45815;52.334;5.024;2023-07-16T05:46:00;12.88;;;6.10;;
58954;SDS011;45815;52.334;5.024;2023-07-16T05:48:26;12.80;;;6.25;;
58954;SDS011;45815;52.334;5.024;2023-07-16T05:50:51;12.43;;;5.47;;
58954;SDS011;45815;52.334;5.024;2023-07-16T05:53:17;11.93;;;5.28;;
58954;SDS011;45815;52.334;5.024;2023-07-16T05:55:42;14.90;;;5.22;;
58954;SDS011;45815;52.334;5.024;2023-07-16T05:58:08;11.70;;;4.80;;
58954;SDS011;45815;52.334;5.024;2023-07-16T06:00:34;8.63;;;4.88;;
58954;SDS011;45815;52.334;5.024;2023-07-16T06:03:02;13.80;;;5.50;;
58954;SDS011;45815;52.334;5.024;2023-07-16T06:05:28;12.95;;;5.78;;
58954;SDS011;45815;52.334;5.024;2023-07-16T06:07:57;12.45;;;5.38;;
58954;SDS011;45815;52.334;5.024;2023-07-16T06:10:23;12.10;;;5.25;;
58954;SDS011;45815;52.334;5.024;2023-07-16T06:12:48;15.98;;;5.30;;
58954;SDS011;45815;52.334;5.024;2023-07-16T06:15:14;13.20;;;5.15;;
58954;SDS011;45815;52.334;5.024;2023-07-16T06:17:39;14.63;;;5.45;;
58954;SDS011;45815;52.334;5.024;2023-07-16T06:20:08;11.48;;;5.07;;
58954;SDS011;45815;52.334;5.024;2023-07-16T06:22:34;13.82;;;5.93;;
58954;SDS011;45815;52.334;5.024;2023-07-16T06:24:59;12.65;;;5.57;;
58954;SDS011;45815;52.334;5.024;2023-07-16T06:27:25;12.27;;;5.03;;
58954;SDS011;45815;52.334;5.024;2023-07-16T06:29:51;10.85;;;5.20;;
58954;SDS011;45815;52.334;5.024;2023-07-16T06:32:16;12.98;;;4.85;;
58954;SDS011;45815;52.334;5.024;2023-07-16T06:34:42;15.77;;;5.30;;
58954;SDS011;45815;52.334;5.024;2023-07-16T06:37:07;10.18;;;4.97;;
58954;SDS011;45815;52.334;5.024;2023-07-16T06:39:33;12.60;;;4.65;;
58954;SDS011;45815;52.334;5.024;2023-07-16T06:41:58;14.85;;;5.32;;
58954;SDS011;45815;52.334;5.024;2023-07-16T06:44:25;15.02;;;5.40;;
58954;SDS011;45815;52.334;5.024;2023-07-16T06:46:51;14.48;;;5.40;;
58954;SDS011;45815;52.334;5.024;2023-07-16T06:49:16;9.82;;;4.97;;
58954;SDS011;45815;52.334;5.024;2023-07-16T06:51:42;14.20;;;5.45;;
58954;SDS011;45815;52.334;5.024;2023-07-16T06:54:07;11.57;;;5.18;;
58954;SDS011;45815;52.334;5.024;2023-07-16T06:56:33;12.35;;;5.60;;
58954;SDS011;45815;52.334;5.024;2023-07-16T06:58:58;12.52;;;5.20;;
58954;SDS011;45815;52.334;5.024;2023-07-16T07:01:24;13.73;;;5.63;;
58954;SDS011;45815;52.334;5.024;2023-07-16T07:03:49;13.50;;;6.13;;
58954;SDS011;45815;52.334;5.024;2023-07-16T07:06:15;14.68;;;5.93;;
58954;SDS011;45815;52.334;5.024;2023-07-16T07:08:40;15.82;;;5.85;;
58954;SDS011;45815;52.334;5.024;2023-07-16T07:11:06;12.43;;;5.20;;
58954;SDS011;45815;52.334;5.024;2023-07-16T07:13:31;14.32;;;6.22;;
58954;SDS011;45815;52.334;5.024;2023-07-16T07:15:57;12.35;;;5.30;;
58954;SDS011;45815;52.334;5.024;2023-07-16T07:18:22;14.32;;;6.63;;
58954;SDS011;45815;52.334;5.024;2023-07-16T07:20:47;12.48;;;5.30;;
58954;SDS011;45815;52.334;5.024;2023-07-16T07:23:14;12.02;;;5.68;;
58954;SDS011;45815;52.334;5.024;2023-07-16T07:25:41;13.98;;;5.20;;
58954;SDS011;45815;52.334;5.024;2023-07-16T07:28:07;12.73;;;5.53;;
58954;SDS011;45815;52.334;5.024;2023-07-16T07:30:32;13.38;;;5.60;;
58954;SDS011;45815;52.334;5.024;2023-07-16T07:32:58;11.77;;;5.38;;
58954;SDS011;45815;52.334;5.024;2023-07-16T07:35:23;11.60;;;5.07;;
58954;SDS011;45815;52.334;5.024;2023-07-16T07:37:49;17.38;;;5.07;;
58954;SDS011;45815;52.334;5.024;2023-07-16T07:40:14;14.02;;;6.00;;
58954;SDS011;45815;52.334;5.024;2023-07-16T07:42:40;11.38;;;5.00;;
58954;SDS011;45815;52.334;5.024;2023-07-16T07:45:05;18.27;;;9.80;;
58954;SDS011;45815;52.334;5.024;2023-07-16T07:47:31;26.80;;;14.02;;
58954;SDS011;45815;52.334;5.024;2023-07-16T07:49:57;14.43;;;6.03;;
58954;SDS011;45815;52.334;5.024;2023-07-16T07:52:22;14.48;;;5.28;;
58954;SDS011;45815;52.334;5.024;2023-07-16T07:54:48;10.23;;;5.32;;
58954;SDS011;45815;52.334;5.024;2023-07-16T07:57:14;11.15;;;5.75;;
58954;SDS011;45815;52.334;5.024;2023-07-16T07:59:40;12.38;;;5.13;;
58954;SDS011;45815;52.334;5.024;2023-07-16T08:02:05;18.27;;;6.30;;
58954;SDS011;45815;52.334;5.024;2023-07-16T08:04:31;11.13;;;4.80;;
58954;SDS011;45815;52.334;5.024;2023-07-16T08:06:57;14.57;;;6.03;;
58954;SDS011;45815;52.334;5.024;2023-07-16T08:09:26;12.38;;;5.40;;
58954;SDS011;45815;52.334;5.024;2023-07-16T08:11:51;11.82;;;5.28;;
58954;SDS011;45815;52.334;5.024;2023-07-16T08:14:17;15.55;;;6.15;;
58954;SDS011;45815;52.334;5.024;2023-07-16T08:16:42;14.65;;;6.40;;
58954;SDS011;45815;52.334;5.024;2023-07-16T08:19:08;11.52;;;5.43;;
58954;SDS011;45815;52.334;5.024;2023-07-16T08:21:34;12.13;;;5.63;;
58954;SDS011;45815;52.334;5.024;2023-07-16T08:24:01;16.98;;;5.72;;
58954;SDS011;45815;52.334;5.024;2023-07-16T08:26:26;13.98;;;5.65;;
58954;SDS011;45815;52.334;5.024;2023-07-16T08:28:52;10.48;;;5.72;;
58954;SDS011;45815;52.334;5.024;2023-07-16T08:31:17;14.32;;;6.15;;
58954;SDS011;45815;52.334;5.024;2023-07-16T08:33:43;13.35;;;5.70;;
58954;SDS011;45815;52.334;5.024;2023-07-16T08:36:09;11.50;;;5.82;;
58954;SDS011;45815;52.334;5.024;2023-07-16T08:38:35;12.68;;;5.63;;
58954;SDS011;45815;52.334;5.024;2023-07-16T08:41:00;14.00;;;5.97;;
58954;SDS011;45815;52.334;5.024;2023-07-16T08:43:26;15.05;;;5.30;;
58954;SDS011;45815;52.334;5.024;2023-07-16T08:45:53;14.20;;;6.20;;
58954;SDS011;45815;52.334;5.024;2023-07-16T08:48:21;15.55;;;6.55;;
58954;SDS011;45815;52.334;5.024;2023-07-16T08:50:47;12.90;;;5.60;;
58954;SDS011;45815;52.334;5.024;2023-07-16T08:53:16;11.80;;;6.40;;
58954;SDS011;45815;52.334;5.024;2023-07-16T08:55:44;14.18;;;6.25;;
58954;SDS011;45815;52.334;5.024;2023-07-16T08:58:11;17.95;;;6.47;;
58954;SDS011;45815;52.334;5.024;2023-07-16T09:00:39;13.57;;;6.30;;
58954;SDS011;45815;52.334;5.024;2023-07-16T09:03:06;12.10;;;6.05;;
58954;SDS011;45815;52.334;5.024;2023-07-16T09:05:31;14.73;;;5.78;;
58954;SDS011;45815;52.334;5.024;2023-07-16T09:08:02;17.33;;;6.07;;
58954;SDS011;45815;52.334;5.024;2023-07-16T09:10:31;9.85;;;4.70;;
58954;SDS011;45815;52.334;5.024;2023-07-16T09:12:57;13.00;;;4.72;;
58954;SDS011;45815;52.334;5.024;2023-07-16T09:15:23;13.05;;;4.80;;
58954;SDS011;45815;52.334;5.024;2023-07-16T09:17:49;13.88;;;5.05;;
58954;SDS011;45815;52.334;5.024;2023-07-16T09:20:15;17.08;;;5.07;;
58954;SDS011;45815;52.334;5.024;2023-07-16T09:22:42;12.00;;;4.95;;
58954;SDS011;45815;52.334;5.024;2023-07-16T09:25:08;11.80;;;5.15;;
58954;SDS011;45815;52.334;5.024;2023-07-16T09:27:37;9.05;;;4.13;;
58954;SDS011;45815;52.334;5.024;2023-07-16T09:30:03;13.93;;;5.50;;
58954;SDS011;45815;52.334;5.024;2023-07-16T09:32:36;12.68;;;5.38;;
58954;SDS011;45815;52.334;5.024;2023-07-16T09:35:14;13.52;;;5.70;;
58954;SDS011;45815;52.334;5.024;2023-07-16T09:37:41;12.63;;;5.22;;
58954;SDS011;45815;52.334;5.024;2023-07-16T09:40:08;14.23;;;4.90;;
58954;SDS011;45815;52.334;5.024;2023-07-16T09:42:38;11.10;;;4.95;;
58954;SDS011;45815;52.334;5.024;2023-07-16T09:45:06;14.63;;;4.20;;
58954;SDS011;45815;52.334;5.024;2023-07-16T09:47:35;13.60;;;5.95;;
58954;SDS011;45815;52.334;5.024;2023-07-16T09:50:01;9.45;;;5.07;;
58954;SDS011;45815;52.334;5.024;2023-07-16T09:52:27;13.90;;;5.60;;
58954;SDS011;45815;52.334;5.024;2023-07-16T09:54:55;13.75;;;5.28;;
58954;SDS011;45815;52.334;5.024;2023-07-16T09:57:25;11.85;;;5.45;;
58954;SDS011;45815;52.334;5.024;2023-07-16T09:59:52;13.25;;;5.35;;
58954;SDS011;45815;52.334;5.024;2023-07-16T10:02:21;12.02;;;5.90;;
58954;SDS011;45815;52.334;5.024;2023-07-16T10:04:47;13.27;;;5.03;;
58954;SDS011;45815;52.334;5.024;2023-07-16T10:07:21;14.30;;;5.10;;
58954;SDS011;45815;52.334;5.024;2023-07-16T10:09:54;12.20;;;5.25;;
58954;SDS011;45815;52.334;5.024;2023-07-16T10:12:23;15.55;;;5.45;;
58954;SDS011;45815;52.334;5.024;2023-07-16T10:14:54;13.68;;;5.20;;
58954;SDS011;45815;52.334;5.024;2023-07-16T10:17:23;15.95;;;4.88;;
58954;SDS011;45815;52.334;5.024;2023-07-16T10:19:57;10.57;;;4.00;;
58954;SDS011;45815;52.334;5.024;2023-07-16T10:22:31;10.20;;;4.22;;
58954;SDS011;45815;52.334;5.024;2023-07-16T10:24:57;10.93;;;4.25;;
58954;SDS011;45815;52.334;5.024;2023-07-16T10:27:29;12.07;;;5.38;;
58954;SDS011;45815;52.334;5.024;2023-07-16T10:29:58;11.07;;;4.97;;
58954;SDS011;45815;52.334;5.024;2023-07-16T10:32:27;9.50;;;4.72;;
58954;SDS011;45815;52.334;5.024;2023-07-16T10:34:54;11.10;;;4.30;;
58954;SDS011;45815;52.334;5.024;2023-07-16T10:37:19;8.80;;;4.40;;
58954;SDS011;45815;52.334;5.024;2023-07-16T10:39:48;10.05;;;3.80;;
58954;SDS011;45815;52.334;5.024;2023-07-16T10:42:16;12.43;;;4.20;;
58954;SDS011;45815;52.334;5.024;2023-07-16T10:44:42;12.52;;;4.13;;
58954;SDS011;45815;52.334;5.024;2023-07-16T10:47:09;12.02;;;4.47;;
58954;SDS011;45815;52.334;5.024;2023-07-16T10:49:42;11.23;;;4.18;;
58954;SDS011;45815;52.334;5.024;2023-07-16T10:52:09;13.52;;;4.30;;
58954;SDS011;45815;52.334;5.024;2023-07-16T10:54:34;11.13;;;3.92;;
58954;SDS011;45815;52.334;5.024;2023-07-16T10:57:00;10.25;;;4.30;;
58954;SDS011;45815;52.334;5.024;2023-07-16T10:59:25;13.63;;;4.68;;
58954;SDS011;45815;52.334;5.024;2023-07-16T11:01:51;11.38;;;4.43;;
58954;SDS011;45815;52.334;5.024;2023-07-16T11:04:16;9.63;;;3.80;;
58954;SDS011;45815;52.334;5.024;2023-07-16T11:06:42;8.02;;;3.20;;
58954;SDS011;45815;52.334;5.024;2023-07-16T11:09:09;8.70;;;2.20;;
58954;SDS011;45815;52.334;5.024;2023-07-16T11:11:34;10.02;;;2.78;;
58954;SDS011;45815;52.334;5.024;2023-07-16T11:14:00;9.20;;;2.70;;
58954;SDS011;45815;52.334;5.024;2023-07-16T11:16:32;8.15;;;2.55;;
58954;SDS011;45815;52.334;5.024;2023-07-16T11:19:04;7.07;;;2.80;;
58954;SDS011;45815;52.334;5.024;2023-07-16T11:21:31;20.63;;;3.30;;
58954;SDS011;45815;52.334;5.024;2023-07-16T11:24:12;11.05;;;3.35;;
58954;SDS011;45815;52.334;5.024;2023-07-16T11:26:39;7.38;;;2.97;;
58954;SDS011;45815;52.334;5.024;2023-07-16T11:29:14;9.93;;;3.13;;
58954;SDS011;45815;52.334;5.024;2023-07-16T11:31:40;8.40;;;2.88;;
58954;SDS011;45815;52.334;5.024;2023-07-16T11:34:14;7.38;;;2.42;;
58954;SDS011;45815;52.334;5.024;2023-07-16T11:36:41;9.25;;;2.83;;
58954;SDS011;45815;52.334;5.024;2023-07-16T11:39:06;6.40;;;1.88;;
58954;SDS011;45815;52.334;5.024;2023-07-16T11:41:32;8.82;;;2.90;;
58954;SDS011;45815;52.334;5.024;2023-07-16T11:43:59;7.70;;;2.10;;
58954;SDS011;45815;52.334;5.024;2023-07-16T11:46:30;9.20;;;2.35;;
58954;SDS011;45815;52.334;5.024;2023-07-16T11:48:57;11.30;;;2.72;;
58954;SDS011;45815;52.334;5.024;2023-07-16T11:51:22;10.20;;;2.28;;
58954;SDS011;45815;52.334;5.024;2023-07-16T11:53:48;10.93;;;2.95;;
58954;SDS011;45815;52.334;5.024;2023-07-16T11:56:13;7.53;;;2.53;;
58954;SDS011;45815;52.334;5.024;2023-07-16T11:58:39;7.78;;;2.50;;
58954;SDS011;45815;52.334;5.024;2023-07-16T12:01:04;8.75;;;2.08;;
58954;SDS011;45815;52.334;5.024;2023-07-16T12:03:30;8.70;;;2.67;;
58954;SDS011;45815;52.334;5.024;2023-07-16T12:05:58;7.60;;;1.92;;
58954;SDS011;45815;52.334;5.024;2023-07-16T12:08:24;8.60;;;1.83;;
58954;SDS011;45815;52.334;5.024;2023-07-16T12:10:49;11.45;;;2.22;;
58954;SDS011;45815;52.334;5.024;2023-07-16T12:13:18;7.63;;;1.98;;
58954;SDS011;45815;52.334;5.024;2023-07-16T12:15:43;8.30;;;2.10;;
58954;SDS011;45815;52.334;5.024;2023-07-16T12:18:09;9.48;;;2.08;;
58954;SDS011;45815;52.334;5.024;2023-07-16T12:20:34;7.05;;;1.88;;
58954;SDS011;45815;52.334;5.024;2023-07-16T12:23:01;6.15;;;1.70;;
58954;SDS011;45815;52.334;5.024;2023-07-16T12:25:28;6.40;;;1.92;;
58954;SDS011;45815;52.334;5.024;2023-07-16T12:28:13;9.38;;;2.47;;
58954;SDS011;45815;52.334;5.024;2023-07-16T12:30:39;10.00;;;2.97;;
58954;SDS011;45815;52.334;5.024;2023-07-16T12:33:04;10.15;;;4.25;;
58954;SDS011;45815;52.334;5.024;2023-07-16T12:35:30;8.63;;;2.90;;
58954;SDS011;45815;52.334;5.024;2023-07-16T12:37:55;6.70;;;2.50;;
58954;SDS011;45815;52.334;5.024;2023-07-16T12:40:23;6.03;;;1.98;;
58954;SDS011;45815;52.334;5.024;2023-07-16T12:42:49;11.10;;;2.35;;
58954;SDS011;45815;52.334;5.024;2023-07-16T12:45:15;10.52;;;2.08;;
58954;SDS011;45815;52.334;5.024;2023-07-16T12:47:40;8.65;;;1.70;;
58954;SDS011;45815;52.334;5.024;2023-07-16T12:50:07;11.00;;;2.05;;
58954;SDS011;45815;52.334;5.024;2023-07-16T12:52:33;8.75;;;2.08;;
58954;SDS011;45815;52.334;5.024;2023-07-16T12:54:58;10.65;;;1.98;;
58954;SDS011;45815;52.334;5.024;2023-07-16T12:57:23;11.80;;;2.53;;
58954;SDS011;45815;52.334;5.024;2023-07-16T12:59:49;10.38;;;2.10;;
58954;SDS011;45815;52.334;5.024;2023-07-16T13:02:14;9.10;;;2.50;;
58954;SDS011;45815;52.334;5.024;2023-07-16T13:04:40;14.13;;;2.70;;
58954;SDS011;45815;52.334;5.024;2023-07-16T13:07:05;11.35;;;2.17;;
58954;SDS011;45815;52.334;5.024;2023-07-16T13:09:31;12.18;;;3.03;;
58954;SDS011;45815;52.334;5.024;2023-07-16T13:11:56;11.52;;;2.17;;
58954;SDS011;45815;52.334;5.024;2023-07-16T13:14:22;10.88;;;2.70;;
58954;SDS011;45815;52.334;5.024;2023-07-16T13:16:48;8.43;;;2.08;;
58954;SDS011;45815;52.334;5.024;2023-07-16T13:19:13;12.13;;;2.42;;
58954;SDS011;45815;52.334;5.024;2023-07-16T13:21:38;10.00;;;2.10;;
58954;SDS011;45815;52.334;5.024;2023-07-16T13:24:04;11.35;;;2.45;;
58954;SDS011;45815;52.334;5.024;2023-07-16T13:26:30;12.02;;;2.70;;
58954;SDS011;45815;52.334;5.024;2023-07-16T13:28:55;13.07;;;2.70;;
58954;SDS011;45815;52.334;5.024;2023-07-16T13:31:21;11.20;;;2.78;;
58954;SDS011;45815;52.334;5.024;2023-07-16T13:33:46;10.98;;;2.60;;
58954;SDS011;45815;52.334;5.024;2023-07-16T13:36:11;37.28;;;18.52;;
58954;SDS011;45815;52.334;5.024;2023-07-16T13:38:37;12.40;;;5.30;;
58954;SDS011;45815;52.334;5.024;2023-07-16T13:41:02;10.05;;;2.92;;
58954;SDS011;45815;52.334;5.024;2023-07-16T13:43:28;8.50;;;2.20;;
58954;SDS011;45815;52.334;5.024;2023-07-16T13:45:53;8.00;;;1.85;;
58954;SDS011;45815;52.334;5.024;2023-07-16T13:48:19;8.15;;;2.08;;
58954;SDS011;45815;52.334;5.024;2023-07-16T13:50:44;8.80;;;1.90;;
58954;SDS011;45815;52.334;5.024;2023-07-16T13:53:10;10.98;;;2.25;;
58954;SDS011;45815;52.334;5.024;2023-07-16T13:55:36;10.77;;;2.92;;
58954;SDS011;45815;52.334;5.024;2023-07-16T13:58:01;10.38;;;2.38;;
58954;SDS011;45815;52.334;5.024;2023-07-16T14:00:27;8.98;;;2.00;;
58954;SDS011;45815;52.334;5.024;2023-07-16T14:02:53;8.45;;;2.55;;
58954;SDS011;45815;52.334;5.024;2023-07-16T14:05:18;8.63;;;2.10;;
58954;SDS011;45815;52.334;5.024;2023-07-16T14:07:45;8.82;;;1.98;;
58954;SDS011;45815;52.334;5.024;2023-07-16T14:10:12;9.73;;;2.38;;
58954;SDS011;45815;52.334;5.024;2023-07-16T14:12:37;9.55;;;2.20;;
58954;SDS011;45815;52.334;5.024;2023-07-16T14:15:03;13.85;;;2.00;;
58954;SDS011;45815;52.334;5.024;2023-07-16T14:17:29;7.43;;;2.17;;
58954;SDS011;45815;52.334;5.024;2023-07-16T14:19:54;9.07;;;2.20;;
58954;SDS011;45815;52.334;5.024;2023-07-16T14:22:20;9.70;;;2.15;;
58954;SDS011;45815;52.334;5.024;2023-07-16T14:24:49;9.43;;;2.90;;
58954;SDS011;45815;52.334;5.024;2023-07-16T14:27:16;9.52;;;2.60;;
58954;SDS011;45815;52.334;5.024;2023-07-16T14:29:44;13.55;;;4.20;;
58954;SDS011;45815;52.334;5.024;2023-07-16T14:32:10;9.35;;;2.65;;
58954;SDS011;45815;52.334;5.024;2023-07-16T14:34:36;10.30;;;3.13;;
58954;SDS011;45815;52.334;5.024;2023-07-16T14:37:01;12.57;;;2.72;;
58954;SDS011;45815;52.334;5.024;2023-07-16T14:39:27;15.50;;;2.90;;